Time;durP1;ratioP1;P1;durP2;ratioP2;P2;SDS_P1;SDS_P2;PMS_P1;PMS_P2;Temp;Humidity;BMP_temperature;BMP_pressure;BME280_temperature;BME280_humidity;BME280_pressure;Samples;Min_cycle;Max_cycle;Signal;HPM_P1;HPM_P2
2021/06/03 00:09:51;;;;;;;8.30;3.35;;;23.20;46.00;;;;;;21171991;28;20131;-55
2021/06/03 00:19:53;;;;;;;10.48;3.45;;;23.20;50.20;;;;;;21170709;28;20135;-53
2021/06/03 00:29:54;;;;;;;10.48;3.53;;;23.20;52.10;;;;;;21169591;28;20146;-53
2021/06/03 00:39:55;;;;;;;7.35;3.70;;;23.10;53.20;;;;;;21169577;28;20164;-56
2021/06/03 00:49:56;;;;;;;8.05;3.40;;;22.90;53.70;;;;;;21168468;28;20267;-54
2021/06/03 00:59:58;;;;;;;9.15;3.60;;;22.80;54.20;;;;;;21166953;28;20052;-53
2021/06/03 01:10:09;;;;;;;9.05;3.58;;;22.70;54.50;;;;;;21167183;28;20047;-55
2021/06/03 01:20:12;;;;;;;7.43;3.30;;;22.70;54.90;;;;;;21165797;28;20043;-54
2021/06/03 01:30:24;;;;;;;7.88;3.33;;;22.60;55.00;;;;;;21164911;28;20100;-55
2021/06/03 01:40:28;;;;;;;11.05;4.22;;;22.50;55.40;;;;;;21164449;28;20212;-54
2021/06/03 01:50:29;;;;;;;11.65;3.80;;;22.40;55.40;;;;;;21163915;28;20096;-56
2021/06/03 02:00:31;;;;;;;9.63;3.47;;;22.30;55.50;;;;;;21162606;28;20414;-53
2021/06/03 02:10:32;;;;;;;8.67;3.50;;;22.20;55.80;;;;;;21162733;28;20047;-55
2021/06/03 02:20:40;;;;;;;9.95;3.35;;;22.10;55.60;;;;;;21162627;28;20138;-55
2021/06/03 02:30:42;;;;;;;7.82;3.33;;;22.10;55.80;;;;;;21163858;28;20582;-54
2021/06/03 02:40:44;;;;;;;9.37;4.00;;;21.90;56.20;;;;;;21179434;28;20054;-55
2021/06/03 02:50:45;;;;;;;8.25;3.83;;;21.80;56.50;;;;;;21179573;28;20457;-53
2021/06/03 03:00:47;;;;;;;9.73;3.40;;;21.70;57.00;;;;;;21177746;28;20069;-53
2021/06/03 03:10:52;;;;;;;7.32;3.30;;;21.60;57.30;;;;;;21177439;28;20131;-56
2021/06/03 03:20:53;;;;;;;7.13;3.40;;;21.50;57.60;;;;;;21175949;28;20056;-54
2021/06/03 03:30:54;;;;;;;7.38;3.45;;;21.40;58.10;;;;;;21175620;28;20191;-56
2021/06/03 03:40:55;;;;;;;11.55;3.97;;;21.30;58.40;;;;;;21174779;28;20085;-54
2021/06/03 03:50:57;;;;;;;27.00;5.32;;;21.20;58.40;;;;;;21173068;28;20055;-52
2021/06/03 04:00:58;;;;;;;8.75;3.50;;;21.20;58.50;;;;;;21172289;28;20499;-54
2021/06/03 04:11:00;;;;;;;7.10;3.55;;;21.20;58.50;;;;;;21172164;28;20126;-53
2021/06/03 04:21:01;;;;;;;8.55;3.88;;;21.10;58.60;;;;;;21171683;28;20143;-53
2021/06/03 04:31:03;;;;;;;9.65;4.00;;;21.00;58.70;;;;;;21135572;28;20144;-53
2021/06/03 04:41:06;;;;;;;9.68;4.25;;;21.00;59.00;;;;;;21169511;28;20079;-53
2021/06/03 04:51:08;;;;;;;10.90;3.70;;;20.90;59.00;;;;;;21168998;28;20171;-54
2021/06/03 05:01:09;;;;;;;12.65;3.65;;;20.80;58.90;;;;;;21167314;28;20308;-53
2021/06/03 05:11:10;;;;;;;9.52;3.55;;;20.80;59.10;;;;;;21167220;28;20043;-54
2021/06/03 05:21:11;;;;;;;37.67;5.00;;;20.70;59.10;;;;;;21166407;28;20497;-53
2021/06/03 05:31:13;;;;;;;9.88;3.83;;;20.70;59.40;;;;;;21166027;28;20067;-53
2021/06/03 05:41:14;;;;;;;17.38;3.70;;;20.70;59.40;;;;;;21164907;28;20079;-55
2021/06/03 05:51:16;;;;;;;16.75;3.70;;;20.70;59.60;;;;;;21164406;28;20465;-54
2021/06/03 06:01:17;;;;;;;13.52;4.38;;;20.70;59.60;;;;;;21163026;28;20063;-55
2021/06/03 06:11:19;;;;;;;18.55;5.28;;;20.80;59.60;;;;;;21161558;28;20130;-55
2021/06/03 06:21:23;;;;;;;12.10;4.27;;;20.90;59.40;;;;;;21162627;28;20082;-54
2021/06/03 06:31:24;;;;;;;11.18;4.32;;;21.00;59.20;;;;;;21162242;28;20488;-55
2021/06/03 06:41:26;;;;;;;14.45;4.97;;;21.20;58.80;;;;;;21162033;28;20134;-53
2021/06/03 06:51:27;;;;;;;12.88;5.28;;;21.40;58.50;;;;;;21161575;28;20136;-53
2021/06/03 07:01:28;;;;;;;19.33;5.55;;;21.60;57.90;;;;;;21160420;28;20487;-54
2021/06/03 07:11:30;;;;;;;25.48;5.85;;;22.00;57.10;;;;;;21160162;28;20043;-54
2021/06/03 07:21:31;;;;;;;18.00;5.28;;;22.20;56.00;;;;;;21166579;28;20055;-52
2021/06/03 07:31:34;;;;;;;22.83;7.57;;;22.50;55.50;;;;;;21155196;28;20086;-52
2021/06/03 07:41:35;;;;;;;19.77;6.38;;;22.40;55.50;;;;;;21169061;28;20054;-48
2021/06/03 07:51:37;;;;;;;16.00;5.05;;;22.70;53.40;;;;;;21170037;28;20043;-49
2021/06/03 08:01:38;;;;;;;20.13;5.57;;;23.50;51.50;;;;;;21169118;28;20063;-49
2021/06/03 08:11:42;;;;;;;11.80;5.07;;;24.10;50.70;;;;;;21170969;28;20050;-49
2021/06/03 08:21:43;;;;;;;9.35;4.35;;;24.80;49.10;;;;;;21168706;28;20055;-50
2021/06/03 08:31:44;;;;;;;13.00;4.63;;;24.70;49.30;;;;;;21167890;28;20421;-50
2021/06/03 08:41:45;;;;;;;26.43;7.20;;;25.20;48.40;;;;;;21167042;28;20096;-48
2021/06/03 08:51:49;;;;;;;18.03;5.37;;;25.50;47.80;;;;;;21166615;28;20058;-50
2021/06/03 09:01:50;;;;;;;12.30;5.07;;;25.80;47.00;;;;;;21165486;28;20490;-49
2021/06/03 09:12:13;;;;;;;12.43;4.77;;;26.10;46.20;;;;;;21163631;28;20043;-51
2021/06/03 09:22:42;;;;;;;12.88;5.25;;;26.30;46.10;;;;;;21160433;28;20051;-50
2021/06/03 09:32:53;;;;;;;9.02;5.07;;;26.50;45.30;;;;;;21162752;28;20075;-50
2021/06/03 09:43:11;;;;;;;14.43;5.60;;;26.60;45.30;;;;;;21162168;28;20131;-51
2021/06/03 09:53:12;;;;;;;13.38;5.63;;;26.80;44.60;;;;;;21162258;28;20098;-51
2021/06/03 10:03:13;;;;;;;17.83;5.85;;;26.90;44.40;;;;;;21161265;28;20474;-50
2021/06/03 10:13:14;;;;;;;12.50;5.30;;;27.10;43.70;;;;;;21142642;28;20050;-51
2021/06/03 10:23:19;;;;;;;;;;;28.10;41.80;;;;;;21142606;28;20044;-49
2021/06/03 10:33:23;;;;;;;10.00;5.22;;;27.30;43.40;;;;;;21160274;28;19919;-49
2021/06/03 10:43:27;;;;;;;67.65;8.65;;;27.30;42.60;;;;;;21160102;28;20134;-51
2021/06/03 10:53:30;;;;;;;9.35;5.03;;;27.40;42.30;;;;;;21163203;28;20141;-50
2021/06/03 11:03:57;;;;;;;9.55;4.43;;;27.40;42.10;;;;;;21155435;28;20134;-54
2021/06/03 11:14:00;;;;;;;14.20;4.80;;;27.50;41.10;;;;;;21172926;28;20043;-53
2021/06/03 11:24:07;;;;;;;8.82;4.47;;;27.60;40.30;;;;;;21174049;28;20135;-53
2021/06/03 11:34:24;;;;;;;11.20;4.40;;;;;;;;;;21172805;28;20086;-51
2021/06/03 11:44:25;;;;;;;9.80;4.38;;;;;;;;;;21170659;28;20151;-49
2021/06/03 11:54:50;;;;;;;10.85;6.80;;;29.10;35.70;;;;;;21173698;28;20051;-51
2021/06/03 12:05:13;;;;;;;17.30;4.38;;;28.30;36.60;;;;;;21170137;28;20148;-51
2021/06/03 12:15:25;;;;;;;8.13;3.60;;;28.40;34.40;;;;;;21168227;28;20079;-50
2021/06/03 12:25:32;;;;;;;8.65;3.35;;;28.50;33.90;;;;;;21169100;28;20094;-53
2021/06/03 12:35:35;;;;;;;7.78;3.63;;;;;;;;;;21169268;28;20048;-53
2021/06/03 12:45:40;;;;;;;26.13;5.30;;;30.30;28.90;;;;;;21167951;28;20134;-54
2021/06/03 12:55:43;;;;;;;10.27;3.90;;;29.60;29.40;;;;;;21148816;28;20615;-56
2021/06/03 13:05:49;;;;;;;7.63;4.32;;;29.80;28.90;;;;;;21166263;28;20087;-53
2021/06/03 13:15:50;;;;;;;6.95;3.88;;;29.70;28.60;;;;;;21164679;28;20518;-53
2021/06/03 13:25:53;;;;;;;9.70;3.42;;;29.80;28.90;;;;;;21166094;28;20513;-53
2021/06/03 13:35:58;;;;;;;9.00;3.95;;;29.80;29.20;;;;;;21164749;28;20205;-56
2021/06/03 13:46:05;;;;;;;19.98;4.05;;;29.90;28.30;;;;;;21163160;28;20043;-57
2021/06/03 13:56:15;;;;;;;7.00;3.17;;;30.00;28.60;;;;;;21162998;28;20055;-52
2021/06/03 14:06:21;;;;;;;11.17;3.43;;;30.30;28.20;;;;;;21161516;28;20509;-56
2021/06/03 14:16:22;;;;;;;7.55;3.17;;;30.00;29.20;;;;;;21161569;28;20126;-56
2021/06/03 14:26:23;;;;;;;13.80;3.80;;;30.00;28.70;;;;;;21161892;28;20050;-53
2021/06/03 14:36:25;;;;;;;14.57;3.05;;;29.60;29.50;;;;;;21178900;28;20051;-54
2021/06/03 14:46:26;;;;;;;9.35;3.38;;;29.60;29.30;;;;;;21177766;28;20090;-54
2021/06/03 14:56:27;;;;;;;6.10;2.83;;;29.60;29.40;;;;;;21177397;28;20145;-55
2021/06/03 15:06:28;;;;;;;8.90;3.67;;;29.70;29.00;;;;;;21176401;28;20138;-53
2021/06/03 15:16:29;;;;;;;7.05;2.92;;;29.80;28.90;;;;;;21175702;28;20075;-55
2021/06/03 15:26:31;;;;;;;8.73;3.53;;;29.60;28.60;;;;;;21176009;28;20130;-53
2021/06/03 15:36:34;;;;;;;7.63;2.90;;;29.70;27.50;;;;;;21175382;28;20407;-53
2021/06/03 15:46:37;;;;;;;11.32;3.10;;;30.00;27.00;;;;;;21172113;28;20060;-53
2021/06/03 15:56:39;;;;;;;12.35;3.40;;;30.10;26.80;;;;;;21172636;28;20126;-53
2021/06/03 16:06:40;;;;;;;10.18;3.20;;;30.30;26.60;;;;;;21169289;28;20079;-52
2021/06/03 16:16:41;;;;;;;8.05;3.17;;;30.50;25.70;;;;;;21167904;27;20093;-54
2021/06/03 16:26:43;;;;;;;12.55;3.40;;;30.30;26.00;;;;;;21169737;28;20047;-52
2021/06/03 16:36:44;;;;;;;4.85;2.47;;;30.40;25.80;;;;;;21170102;28;20127;-52
2021/06/03 16:46:45;;;;;;;5.50;2.38;;;30.50;25.40;;;;;;21167523;28;20139;-52
2021/06/03 16:56:47;;;;;;;7.63;3.30;;;31.50;23.60;;;;;;21165502;28;20135;-52
2021/06/03 17:06:48;;;;;;;6.43;2.40;;;30.60;24.90;;;;;;21164535;28;20055;-52
2021/06/03 17:16:49;;;;;;;5.65;2.33;;;30.50;24.60;;;;;;21164090;28;20118;-55
2021/06/03 17:26:51;;;;;;;5.05;2.00;;;30.50;24.50;;;;;;21163763;28;20135;-52
2021/06/03 17:36:52;;;;;;;11.82;2.80;;;30.40;24.40;;;;;;21163812;28;20543;-50
2021/06/03 17:46:53;;;;;;;4.20;2.38;;;30.20;24.50;;;;;;21161135;28;20491;-49
2021/06/03 17:56:54;;;;;;;5.10;2.33;;;30.10;24.50;;;;;;21161299;28;20131;-55
2021/06/03 18:06:55;;;;;;;7.90;2.38;;;30.00;24.50;;;;;;21156351;28;20050;-53
2021/06/03 18:16:58;;;;;;;6.25;3.72;;;30.70;23.90;;;;;;21160492;28;20051;-53
2021/06/03 18:27:00;;;;;;;6.80;3.22;;;;;;;;;;21161154;28;20139;-56
2021/06/03 18:37:02;;;;;;;11.68;3.70;;;;;;;;;;21159874;28;20044;-53
2021/06/03 18:47:03;;;;;;;8.35;2.78;;;30.60;24.50;;;;;;21159070;28;20122;-53
2021/06/03 18:57:06;;;;;;;9.73;2.90;;;29.60;25.40;;;;;;21159394;28;20086;-54
2021/06/03 19:07:07;;;;;;;11.65;3.33;;;29.20;26.20;;;;;;21160345;28;20062;-53
2021/06/03 19:17:08;;;;;;;12.18;3.55;;;28.90;26.90;;;;;;21169449;28;20389;-53
2021/06/03 19:27:11;;;;;;;9.80;3.08;;;28.60;27.60;;;;;;21157282;28;20134;-52
2021/06/03 19:37:12;;;;;;;8.48;3.38;;;28.40;28.20;;;;;;21174783;28;20134;-55
2021/06/03 19:47:13;;;;;;;8.63;4.45;;;28.20;29.60;;;;;;21173582;28;20139;-55
2021/06/03 19:57:14;;;;;;;5.93;3.50;;;27.90;30.40;;;;;;21173583;28;20100;-56
2021/06/03 20:07:16;;;;;;;7.88;4.30;;;27.60;30.90;;;;;;21172063;28;20051;-56
2021/06/03 20:17:17;;;;;;;9.88;3.53;;;27.30;31.30;;;;;;21152764;28;20557;-53
2021/06/03 20:27:18;;;;;;;12.63;3.92;;;27.20;31.60;;;;;;21170206;28;20165;-53
2021/06/03 20:37:19;;;;;;;;;;;26.90;32.50;;;;;;21170818;28;20082;-53
2021/06/03 20:47:20;;;;;;;4.40;2.90;;;27.10;32.10;;;;;;21169803;28;20007;-55
2021/06/03 20:57:22;;;;;;;6.20;3.13;;;26.50;32.80;;;;;;21150485;28;20135;-55
2021/06/03 21:07:23;;;;;;;;;;;26.40;33.10;;;;;;21168236;28;20047;-55
2021/06/03 21:17:25;;;;;;;4.90;3.43;;;26.10;33.40;;;;;;21167791;28;19955;-54
2021/06/03 21:27:26;;;;;;;4.82;3.03;;;26.40;33.30;;;;;;21167135;28;20131;-53
2021/06/03 21:37:27;;;;;;;7.57;3.67;;;26.00;33.60;;;;;;21145847;28;20054;-54
2021/06/03 21:47:28;;;;;;;8.23;4.18;;;26.00;33.60;;;;;;21164621;28;20055;-53
2021/06/03 21:57:30;;;;;;;7.25;4.15;;;25.90;33.60;;;;;;21149261;28;20052;-52
2021/06/03 22:07:31;;;;;;;6.78;3.20;;;25.90;33.30;;;;;;21079749;28;20166;-54
2021/06/03 22:17:32;;;;;;;6.63;4.23;;;25.80;33.50;;;;;;21079010;28;20044;-55
2021/06/03 22:27:33;;;;;;;6.07;3.93;;;25.70;33.90;;;;;;21078536;28;20305;-55
2021/06/03 22:37:36;;;;;;;6.13;3.78;;;25.60;34.30;;;;;;21078500;28;20083;-56
2021/06/03 22:47:42;;;;;;;10.93;6.18;;;25.50;34.60;;;;;;21079299;28;20055;-55
2021/06/03 22:57:44;;;;;;;9.77;4.85;;;25.40;34.70;;;;;;21078652;28;20539;-53
2021/06/03 23:07:46;;;;;;;8.13;3.92;;;25.30;34.70;;;;;;21009195;28;20056;-53
2021/06/03 23:17:47;;;;;;;;;;;25.20;35.10;;;;;;21009223;28;20056;-54
2021/06/03 23:27:49;;;;;;;9.75;4.00;;;24.90;35.40;;;;;;21008115;28;20014;-55
2021/06/03 23:37:50;;;;;;;7.87;3.50;;;24.90;36.00;;;;;;21008053;28;20040;-55
2021/06/03 23:47:51;;;;;;;8.63;4.60;;;24.70;36.30;;;;;;21006163;28;20412;-55
2021/06/03 23:57:54;;;;;;;8.20;4.00;;;24.60;37.20;;;;;;21022178;28;20075;-54
